SPATO EPWA-EPWA
Flight info
| Callsign | SPATO |
|---|---|
| Flight time | 0h 29m |
| Altitude | 10000 |
| Route | DCT |
| Aircraft | SR22/L-V/N |
Departure
| Time | 2026-05-06 22:08 |
|---|---|
| Airport | Warsaw Chopin Airport (EPWA) |
Arrival
| Time | 2026-05-06 22:38 |
|---|---|
| Airport | Warsaw Chopin Airport (EPWA) |
| Time | Latitude | Longitude | Altitude | Speed | Heading |
|---|---|---|---|---|---|
| 2026-05-06 21:42 | 52.17096 | 20.97082 | 333 ft | 0 kts | 77° |
| 2026-05-06 22:01 | 52.17096 | 20.97084 | 333 ft | 0 kts | 142° |
| 2026-05-06 22:01 | 52.17082 | 20.97055 | 332 ft | 5 kts | 264° |
| 2026-05-06 22:01 | 52.17065 | 20.96942 | 329 ft | 9 kts | 253° |
| 2026-05-06 22:01 | 52.17063 | 20.96926 | 328 ft | 0 kts | 319° |
| 2026-05-06 22:02 | 52.17068 | 20.96921 | 328 ft | 2 kts | 334° |
| 2026-05-06 22:02 | 52.17100 | 20.96895 | 328 ft | 7 kts | 333° |
| 2026-05-06 22:02 | 52.17155 | 20.96841 | 328 ft | 7 kts | 304° |
| 2026-05-06 22:02 | 52.17151 | 20.96768 | 328 ft | 8 kts | 230° |
| 2026-05-06 22:03 | 52.17119 | 20.96666 | 327 ft | 9 kts | 246° |
| 2026-05-06 22:03 | 52.17095 | 20.96591 | 327 ft | 5 kts | 239° |
| 2026-05-06 22:03 | 52.17089 | 20.96569 | 327 ft | 0 kts | 243° |
| 2026-05-06 22:04 | 52.17088 | 20.96567 | 327 ft | 1 kts | 240° |
| 2026-05-06 22:04 | 52.17083 | 20.96552 | 327 ft | 1 kts | 245° |
| 2026-05-06 22:05 | 52.17078 | 20.96537 | 328 ft | 2 kts | 238° |
| 2026-05-06 22:05 | 52.17077 | 20.96534 | 328 ft | 0 kts | 243° |
| 2026-05-06 22:06 | 52.17075 | 20.96530 | 328 ft | 1 kts | 239° |
| 2026-05-06 22:06 | 52.17071 | 20.96515 | 328 ft | 2 kts | 244° |
| 2026-05-06 22:07 | 52.17051 | 20.96458 | 329 ft | 9 kts | 239° |
| 2026-05-06 22:07 | 52.17002 | 20.96352 | 328 ft | 11 kts | 196° |
| 2026-05-06 22:07 | 52.16850 | 20.96472 | 326 ft | 55 kts | 152° |
| 2026-05-06 22:07 | 52.16364 | 20.96870 | 423 ft | 89 kts | 154° |
| 2026-05-06 22:08 | 52.15825 | 20.97321 | 729 ft | 87 kts | 149° |
| 2026-05-06 22:08 | 52.15277 | 20.97796 | 990 ft | 91 kts | 154° |
| 2026-05-06 22:08 | 52.14714 | 20.98196 | 1285 ft | 89 kts | 159° |
| 2026-05-06 22:08 | 52.14244 | 20.99027 | 1303 ft | 120 kts | 114° |
| 2026-05-06 22:09 | 52.14133 | 21.00370 | 1515 ft | 123 kts | 83° |
| 2026-05-06 22:09 | 52.14096 | 21.01712 | 1418 ft | 140 kts | 99° |
| 2026-05-06 22:09 | 52.13963 | 21.02803 | 1433 ft | 122 kts | 108° |
| 2026-05-06 22:09 | 52.13750 | 21.03722 | 1371 ft | 115 kts | 107° |
| 2026-05-06 22:10 | 52.13970 | 21.04869 | 1148 ft | 117 kts | 37° |
| 2026-05-06 22:10 | 52.14674 | 21.04967 | 1097 ft | 100 kts | 344° |
| 2026-05-06 22:10 | 52.15318 | 21.04568 | 1012 ft | 95 kts | 331° |
| 2026-05-06 22:10 | 52.15931 | 21.04091 | 854 ft | 103 kts | 335° |
| 2026-05-06 22:11 | 52.16563 | 21.03727 | 887 ft | 93 kts | 342° |
| 2026-05-06 22:11 | 52.17190 | 21.03424 | 1001 ft | 95 kts | 342° |
| 2026-05-06 22:11 | 52.17829 | 21.03165 | 1134 ft | 94 kts | 342° |
| 2026-05-06 22:11 | 52.18478 | 21.03009 | 1192 ft | 96 kts | 4° |
| 2026-05-06 22:12 | 52.18904 | 21.03743 | 1138 ft | 103 kts | 95° |
| 2026-05-06 22:12 | 52.18406 | 21.04322 | 1176 ft | 105 kts | 210° |
| 2026-05-06 22:12 | 52.18283 | 21.03379 | 1284 ft | 94 kts | 302° |
| 2026-05-06 22:12 | 52.18821 | 21.03020 | 1275 ft | 103 kts | 21° |
| 2026-05-06 22:13 | 52.19156 | 21.03840 | 1255 ft | 102 kts | 99° |
| 2026-05-06 22:13 | 52.19122 | 21.04042 | 1239 ft | 103 kts | 119° |
| 2026-05-06 22:14 | 52.19027 | 21.04258 | 1204 ft | 105 kts | 142° |
| 2026-05-06 22:14 | 52.18446 | 21.04203 | 1098 ft | 107 kts | 240° |
| 2026-05-06 22:14 | 52.18679 | 21.03262 | 1037 ft | 108 kts | 333° |
| 2026-05-06 22:15 | 52.19324 | 21.02904 | 1044 ft | 106 kts | 340° |
| 2026-05-06 22:15 | 52.19968 | 21.02598 | 1078 ft | 100 kts | 340° |
| 2026-05-06 22:15 | 52.20513 | 21.02266 | 1174 ft | 95 kts | 336° |
| 2026-05-06 22:15 | 52.21078 | 21.01955 | 1346 ft | 91 kts | 340° |
| 2026-05-06 22:16 | 52.21548 | 21.01456 | 1429 ft | 94 kts | 297° |
| 2026-05-06 22:16 | 52.21570 | 21.00495 | 1459 ft | 89 kts | 251° |
| 2026-05-06 22:16 | 52.21372 | 20.99640 | 1200 ft | 89 kts | 251° |
| 2026-05-06 22:16 | 52.21177 | 20.98810 | 935 ft | 89 kts | 248° |
| 2026-05-06 22:17 | 52.20995 | 20.97941 | 787 ft | 94 kts | 253° |
| 2026-05-06 22:17 | 52.20835 | 20.97069 | 876 ft | 86 kts | 255° |
| 2026-05-06 22:17 | 52.20670 | 20.96248 | 935 ft | 84 kts | 244° |
| 2026-05-06 22:17 | 52.20445 | 20.95447 | 967 ft | 86 kts | 245° |
| 2026-05-06 22:18 | 52.20184 | 20.94625 | 949 ft | 89 kts | 231° |
| 2026-05-06 22:18 | 52.19755 | 20.94150 | 1016 ft | 81 kts | 198° |
| 2026-05-06 22:18 | 52.19248 | 20.94354 | 873 ft | 87 kts | 154° |
| 2026-05-06 22:18 | 52.18785 | 20.94744 | 646 ft | 85 kts | 155° |
| 2026-05-06 22:19 | 52.18338 | 20.95149 | 532 ft | 93 kts | 147° |
| 2026-05-06 22:19 | 52.17828 | 20.95626 | 431 ft | 91 kts | 151° |
| 2026-05-06 22:19 | 52.17371 | 20.96007 | 335 ft | 71 kts | 152° |
| 2026-05-06 22:19 | 52.16922 | 20.96408 | 346 ft | 95 kts | 150° |
| 2026-05-06 22:20 | 52.16376 | 20.96836 | 580 ft | 96 kts | 152° |
| 2026-05-06 22:20 | 52.15825 | 20.97368 | 660 ft | 117 kts | 150° |
| 2026-05-06 22:20 | 52.15145 | 20.97966 | 855 ft | 122 kts | 155° |
| 2026-05-06 22:20 | 52.14406 | 20.98387 | 1113 ft | 121 kts | 159° |
| 2026-05-06 22:21 | 52.13814 | 20.99198 | 1294 ft | 129 kts | 123° |
| 2026-05-06 22:21 | 52.13605 | 21.00503 | 1470 ft | 135 kts | 86° |
| 2026-05-06 22:21 | 52.13773 | 21.01880 | 1480 ft | 138 kts | 75° |
| 2026-05-06 22:21 | 52.14187 | 21.03057 | 1437 ft | 135 kts | 51° |
| 2026-05-06 22:22 | 52.14795 | 21.03949 | 1464 ft | 125 kts | 22° |
| 2026-05-06 22:22 | 52.15591 | 21.04122 | 1406 ft | 123 kts | 350° |
| 2026-05-06 22:22 | 52.16320 | 21.03771 | 1384 ft | 121 kts | 341° |
| 2026-05-06 22:22 | 52.17096 | 21.03724 | 1332 ft | 122 kts | 30° |
| 2026-05-06 22:23 | 52.17283 | 21.04794 | 1337 ft | 114 kts | 118° |
| 2026-05-06 22:23 | 52.16697 | 21.05186 | 1299 ft | 105 kts | 210° |
| 2026-05-06 22:23 | 52.16489 | 21.04262 | 1338 ft | 106 kts | 292° |
| 2026-05-06 22:23 | 52.17082 | 21.03766 | 1396 ft | 116 kts | 13° |
| 2026-05-06 22:24 | 52.17488 | 21.04702 | 1448 ft | 123 kts | 99° |
| 2026-05-06 22:24 | 52.16914 | 21.05397 | 1438 ft | 123 kts | 188° |
| 2026-05-06 22:24 | 52.16448 | 21.04556 | 1473 ft | 120 kts | 269° |
| 2026-05-06 22:24 | 52.16896 | 21.03583 | 1435 ft | 128 kts | 343° |
| 2026-05-06 22:25 | 52.17591 | 21.04104 | 1403 ft | 131 kts | 72° |
| 2026-05-06 22:25 | 52.17315 | 21.05206 | 1457 ft | 122 kts | 158° |
| 2026-05-06 22:25 | 52.16634 | 21.04978 | 1471 ft | 116 kts | 232° |
| 2026-05-06 22:25 | 52.16620 | 21.03863 | 1438 ft | 120 kts | 309° |
| 2026-05-06 22:26 | 52.17339 | 21.03657 | 1490 ft | 119 kts | 30° |
| 2026-05-06 22:26 | 52.17657 | 21.04695 | 1519 ft | 118 kts | 98° |
| 2026-05-06 22:26 | 52.17187 | 21.05554 | 1465 ft | 119 kts | 170° |
| 2026-05-06 22:26 | 52.16604 | 21.04995 | 1413 ft | 119 kts | 255° |
| 2026-05-06 22:27 | 52.16857 | 21.03930 | 1499 ft | 114 kts | 327° |
| 2026-05-06 22:27 | 52.17558 | 21.04098 | 1386 ft | 130 kts | 55° |
| 2026-05-06 22:27 | 52.17439 | 21.05268 | 1430 ft | 120 kts | 144° |
| 2026-05-06 22:27 | 52.16748 | 21.05306 | 1447 ft | 114 kts | 219° |
| 2026-05-06 22:28 | 52.16586 | 21.04243 | 1448 ft | 114 kts | 295° |
| 2026-05-06 22:28 | 52.17207 | 21.03713 | 1437 ft | 119 kts | 9° |
| 2026-05-06 22:28 | 52.17715 | 21.04513 | 1458 ft | 120 kts | 83° |
| 2026-05-06 22:28 | 52.17362 | 21.05560 | 1399 ft | 122 kts | 163° |
| 2026-05-06 22:29 | 52.16703 | 21.05073 | 1394 ft | 117 kts | 250° |
| 2026-05-06 22:29 | 52.16956 | 21.03995 | 1439 ft | 116 kts | 331° |
| 2026-05-06 22:29 | 52.17693 | 21.04164 | 1463 ft | 118 kts | 46° |
| 2026-05-06 22:29 | 52.17849 | 21.05302 | 1484 ft | 118 kts | 114° |
| 2026-05-06 22:30 | 52.17272 | 21.05947 | 1436 ft | 119 kts | 186° |
| 2026-05-06 22:30 | 52.16741 | 21.05253 | 1465 ft | 113 kts | 261° |
| 2026-05-06 22:30 | 52.17114 | 21.04275 | 1495 ft | 113 kts | 335° |
| 2026-05-06 22:30 | 52.17793 | 21.04551 | 1453 ft | 123 kts | 60° |
| 2026-05-06 22:31 | 52.17691 | 21.05707 | 1467 ft | 119 kts | 137° |
| 2026-05-06 22:31 | 52.17018 | 21.05933 | 1452 ft | 115 kts | 218° |
| 2026-05-06 22:31 | 52.16933 | 21.04819 | 1484 ft | 112 kts | 308° |
| 2026-05-06 22:31 | 52.17624 | 21.04576 | 1404 ft | 123 kts | 30° |
| 2026-05-06 22:32 | 52.17849 | 21.05675 | 1394 ft | 124 kts | 116° |
| 2026-05-06 22:32 | 52.17194 | 21.06376 | 1372 ft | 123 kts | 159° |
| 2026-05-06 22:32 | 52.16569 | 21.06744 | 1540 ft | 89 kts | 163° |
| 2026-05-06 22:32 | 52.16424 | 21.06371 | 1318 ft | 91 kts | 338° |
| 2026-05-06 22:33 | 52.17042 | 21.06085 | 1528 ft | 96 kts | 339° |
| 2026-05-06 22:33 | 52.17626 | 21.05711 | 1453 ft | 103 kts | 337° |
| 2026-05-06 22:33 | 52.18240 | 21.05340 | 1346 ft | 102 kts | 341° |
| 2026-05-06 22:33 | 52.18839 | 21.04984 | 1370 ft | 98 kts | 337° |
| 2026-05-06 22:34 | 52.19415 | 21.04565 | 1363 ft | 97 kts | 325° |
| 2026-05-06 22:34 | 52.19915 | 21.03978 | 1349 ft | 99 kts | 324° |
| 2026-05-06 22:34 | 52.20419 | 21.03349 | 1339 ft | 98 kts | 317° |
| 2026-05-06 22:34 | 52.20890 | 21.02611 | 1415 ft | 109 kts | 313° |
| 2026-05-06 22:35 | 52.21201 | 21.01635 | 1548 ft | 110 kts | 264° |
| 2026-05-06 22:35 | 52.20990 | 21.00635 | 1438 ft | 91 kts | 252° |
| 2026-05-06 22:35 | 52.20754 | 20.99774 | 1167 ft | 87 kts | 240° |
| 2026-05-06 22:35 | 52.20499 | 20.99009 | 963 ft | 95 kts | 242° |
| 2026-05-06 22:36 | 52.20234 | 20.98156 | 871 ft | 94 kts | 247° |
| 2026-05-06 22:36 | 52.20055 | 20.97245 | 787 ft | 88 kts | 249° |
| 2026-05-06 22:36 | 52.19849 | 20.96314 | 806 ft | 103 kts | 251° |
| 2026-05-06 22:36 | 52.19427 | 20.95485 | 970 ft | 106 kts | 206° |
| 2026-05-06 22:37 | 52.18863 | 20.95057 | 691 ft | 95 kts | 202° |
| 2026-05-06 22:37 | 52.18298 | 20.95218 | 530 ft | 95 kts | 154° |
| 2026-05-06 22:37 | 52.17778 | 20.95660 | 354 ft | 89 kts | 152° |
| 2026-05-06 22:37 | 52.17347 | 20.96021 | 335 ft | 64 kts | 149° |
| 2026-05-06 22:38 | 52.17130 | 20.96226 | 333 ft | 21 kts | 153° |
| 2026-05-06 22:38 | 52.17025 | 20.96314 | 329 ft | 18 kts | 147° |
| 2026-05-06 22:38 | 52.17016 | 20.96355 | 329 ft | 0 kts | 51° |
| 2026-05-06 22:38 | 52.17054 | 20.96455 | 329 ft | 16 kts | 62° |
| 2026-05-06 22:39 | 52.17081 | 20.96535 | 328 ft | 0 kts | 58° |
| 2026-05-06 22:39 | 52.17096 | 20.96573 | 327 ft | 9 kts | 65° |
| 2026-05-06 22:39 | 52.17123 | 20.96676 | 328 ft | 13 kts | 62° |
| 2026-05-06 22:39 | 52.17159 | 20.96783 | 328 ft | 10 kts | 64° |
| 2026-05-06 22:40 | 52.17132 | 20.96865 | 328 ft | 10 kts | 159° |
| 2026-05-06 22:40 | 52.17085 | 20.96906 | 328 ft | 8 kts | 150° |
| 2026-05-06 22:40 | 52.17075 | 20.96964 | 329 ft | 5 kts | 57° |
| 2026-05-06 22:40 | 52.17087 | 20.97015 | 331 ft | 5 kts | 77° |
| 2026-05-06 22:41 | 52.17096 | 20.97077 | 333 ft | 0 kts | 71° |
| 2026-05-06 22:41 | 52.17096 | 20.97078 | 333 ft | 0 kts | 77° |